Time;durP1;ratioP1;P1;durP2;ratioP2;P2;SDS_P1;SDS_P2;PMS_P1;PMS_P2;Temp;Humidity;BMP_temperature;BMP_pressure;BME280_temperature;BME280_humidity;BME280_pressure;Samples;Min_cycle;Max_cycle;Signal;HPM_P1;HPM_P2
2021/12/31 00:00:39;;;;;;;10.23;7.00;;;11.10;99.90;;;;;;2620906;47;20153;31
2021/12/31 00:03:16;;;;;;;12.30;7.20;;;11.10;99.90;;;;;;2602976;54;20029;31
2021/12/31 00:05:53;;;;;;;9.60;6.60;;;11.10;99.90;;;;;;2621173;47;20824;31
2021/12/31 00:08:27;;;;;;;20.10;7.15;;;11.10;99.90;;;;;;2603257;54;20022;31
2021/12/31 00:11:02;;;;;;;11.68;6.63;;;11.10;99.90;;;;;;2621272;47;20906;31
2021/12/31 00:13:36;;;;;;;15.80;7.13;;;11.10;99.90;;;;;;2603115;54;20022;31
2021/12/31 00:16:10;;;;;;;14.30;7.53;;;11.10;99.90;;;;;;2603022;54;20027;31
2021/12/31 00:18:47;;;;;;;9.95;7.03;;;11.10;99.90;;;;;;2603035;54;20917;31
2021/12/31 00:21:21;;;;;;;13.18;7.15;;;11.10;99.90;;;;;;2602938;54;20109;31
2021/12/31 00:23:56;;;;;;;10.85;7.07;;;11.20;99.90;;;;;;2603121;54;20023;31
2021/12/31 00:26:31;;;;;;;10.35;6.55;;;11.10;99.90;;;;;;2603335;54;20022;31
2021/12/31 00:29:05;;;;;;;8.82;5.70;;;11.10;99.90;;;;;;2602958;54;20027;31
2021/12/31 00:31:39;;;;;;;9.30;5.70;;;11.10;99.90;;;;;;2621779;47;20026;31
2021/12/31 00:34:16;;;;;;;7.35;5.82;;;11.10;99.90;;;;;;2602990;54;20023;31
2021/12/31 00:36:50;;;;;;;8.63;5.50;;;11.10;99.90;;;;;;2602918;54;20044;31
2021/12/31 00:39:24;;;;;;;10.40;5.95;;;11.10;99.90;;;;;;2602997;54;20030;31
2021/12/31 00:41:58;;;;;;;14.13;5.90;;;11.20;99.90;;;;;;2603160;54;20057;31
2021/12/31 00:44:32;;;;;;;12.07;5.70;;;11.10;99.90;;;;;;2603981;54;20022;31
2021/12/31 00:47:06;;;;;;;12.50;5.53;;;11.10;99.90;;;;;;2622548;46;20060;31
2021/12/31 00:49:43;;;;;;;6.18;4.55;;;11.10;99.90;;;;;;2603829;54;20037;31
2021/12/31 00:52:17;;;;;;;6.07;4.73;;;11.20;99.90;;;;;;2622346;46;20964;31
2021/12/31 00:54:51;;;;;;;9.00;4.10;;;11.10;99.90;;;;;;2603542;54;20882;31
2021/12/31 00:57:25;;;;;;;8.35;4.80;;;11.20;99.90;;;;;;2603600;54;20888;31
2021/12/31 00:59:59;;;;;;;5.97;4.65;;;11.20;99.90;;;;;;2603760;54;20850;31
2021/12/31 01:02:33;;;;;;;7.72;4.32;;;11.10;99.90;;;;;;2603802;54;20108;31
2021/12/31 01:05:11;;;;;;;8.10;4.13;;;11.20;99.90;;;;;;2622243;46;20105;31
2021/12/31 01:07:46;;;;;;;9.80;4.30;;;11.10;99.90;;;;;;2603822;54;20897;31
2021/12/31 01:10:23;;;;;;;6.82;4.35;;;11.20;99.90;;;;;;2622375;46;20902;31
2021/12/31 01:12:57;;;;;;;6.57;4.53;;;11.20;99.90;;;;;;2603674;54;20030;31
2021/12/31 01:15:39;;;;;;;5.82;4.30;;;11.20;99.90;;;;;;2622333;46;20022;31
2021/12/31 01:19:43;;;;;;;8.25;4.30;;;11.10;99.90;;;;;;2603601;54;20723;31
2021/12/31 01:21:20;;;;;;;10.80;4.10;;;11.20;99.90;;;;;;2603768;54;20034;31
2021/12/31 01:23:57;;;;;;;6.30;4.00;;;11.20;99.90;;;;;;2621791;46;20234;31
2021/12/31 01:26:32;;;;;;;6.00;3.67;;;11.20;99.90;;;;;;2622188;46;20031;31
2021/12/31 01:29:06;;;;;;;3.75;3.03;;;11.20;99.90;;;;;;2603487;54;20038;31
2021/12/31 01:31:40;;;;;;;8.10;3.03;;;11.20;99.90;;;;;;2622621;46;20852;31
2021/12/31 01:34:14;;;;;;;6.18;3.28;;;11.20;99.90;;;;;;2621960;46;20026;31
2021/12/31 01:36:51;;;;;;;5.55;3.65;;;11.20;99.90;;;;;;2621722;46;20932;31
2021/12/31 01:39:25;;;;;;;4.07;3.10;;;11.20;99.90;;;;;;2603606;54;20049;31
2021/12/31 01:41:59;;;;;;;6.57;3.47;;;11.20;99.90;;;;;;2603789;54;20031;31
2021/12/31 01:44:39;;;;;;;8.50;3.80;;;11.20;99.90;;;;;;2603681;54;20097;31
2021/12/31 01:47:16;;;;;;;7.03;3.77;;;11.20;99.90;;;;;;2603413;54;20053;31
2021/12/31 01:49:56;;;;;;;6.40;3.60;;;11.30;99.90;;;;;;2603474;54;20269;31
2021/12/31 01:52:33;;;;;;;7.60;3.60;;;11.30;99.90;;;;;;2603834;54;19935;31
2021/12/31 01:55:08;;;;;;;6.25;3.42;;;11.30;99.90;;;;;;2603545;54;20057;31
2021/12/31 01:57:42;;;;;;;6.38;4.15;;;11.30;99.90;;;;;;2622423;46;20854;31
2021/12/31 02:00:16;;;;;;;6.35;3.30;;;11.30;99.90;;;;;;2603551;54;20038;31
2021/12/31 02:02:51;;;;;;;6.45;3.85;;;11.30;99.90;;;;;;2603451;54;20037;31
2021/12/31 02:05:27;;;;;;;8.30;4.15;;;11.30;99.90;;;;;;2603465;54;20175;31
2021/12/31 02:08:00;;;;;;;7.28;4.15;;;11.30;99.90;;;;;;2603548;54;20037;31
2021/12/31 02:10:37;;;;;;;8.80;4.30;;;11.30;99.90;;;;;;2603269;54;20033;31
2021/12/31 02:13:11;;;;;;;5.47;3.70;;;11.30;99.90;;;;;;2603440;54;20057;31
2021/12/31 02:15:45;;;;;;;6.10;4.07;;;11.30;99.90;;;;;;2603461;54;20242;31
2021/12/31 02:18:19;;;;;;;10.93;3.90;;;11.30;99.90;;;;;;2603538;54;20033;31
2021/12/31 02:20:56;;;;;;;5.65;3.35;;;11.30;99.90;;;;;;2603462;54;20851;31
2021/12/31 02:23:39;;;;;;;5.13;3.42;;;11.30;99.90;;;;;;2603475;54;20045;31
2021/12/31 02:26:13;;;;;;;5.97;3.55;;;11.30;99.90;;;;;;2622029;46;20026;31
2021/12/31 02:28:47;;;;;;;6.95;3.30;;;11.30;99.90;;;;;;2603646;54;20033;31
2021/12/31 02:31:21;;;;;;;8.13;4.65;;;11.30;99.90;;;;;;2603529;54;20046;31
2021/12/31 02:33:55;;;;;;;4.32;3.30;;;11.40;99.90;;;;;;2622068;46;20022;31
2021/12/31 02:36:32;;;;;;;6.35;3.70;;;11.30;99.90;;;;;;2621611;46;20827;31
2021/12/31 02:39:06;;;;;;;6.25;3.80;;;11.30;99.90;;;;;;2622012;46;20046;31
2021/12/31 02:41:40;;;;;;;6.55;3.20;;;11.30;99.90;;;;;;2603254;54;20026;31
2021/12/31 02:44:14;;;;;;;4.97;3.00;;;11.30;99.90;;;;;;2621836;46;20096;31
2021/12/31 02:46:48;;;;;;;7.38;2.90;;;11.30;99.90;;;;;;2621965;46;20022;31
2021/12/31 02:49:24;;;;;;;6.55;3.40;;;11.40;99.90;;;;;;2603468;54;20890;31
2021/12/31 02:52:02;;;;;;;5.55;2.95;;;11.40;99.90;;;;;;2603426;54;20027;31
2021/12/31 02:54:38;;;;;;;6.43;3.25;;;11.40;99.90;;;;;;2622094;46;20856;31
2021/12/31 02:57:12;;;;;;;4.45;3.28;;;11.40;99.90;;;;;;2603250;54;20844;31
2021/12/31 02:59:49;;;;;;;7.80;3.70;;;11.40;99.90;;;;;;2621589;46;20030;31
2021/12/31 03:02:24;;;;;;;6.20;3.05;;;11.40;99.90;;;;;;2603353;54;20854;31
2021/12/31 03:05:00;;;;;;;7.30;3.88;;;11.40;99.90;;;;;;2602995;54;20037;31
2021/12/31 03:07:38;;;;;;;5.80;3.60;;;11.40;99.90;;;;;;2603550;54;20832;31
2021/12/31 03:10:12;;;;;;;6.18;3.67;;;11.40;99.90;;;;;;2603200;54;20026;31
2021/12/31 03:12:46;;;;;;;5.60;3.60;;;11.30;99.90;;;;;;2603265;54;20029;31
2021/12/31 03:15:20;;;;;;;6.88;3.33;;;11.40;99.90;;;;;;2621779;46;20085;31
2021/12/31 03:17:57;;;;;;;5.80;3.03;;;11.40;99.90;;;;;;2603115;54;20013;31
2021/12/31 03:20:41;;;;;;;7.35;3.70;;;11.30;99.90;;;;;;2622047;46;20792;31
2021/12/31 03:23:18;;;;;;;6.55;3.90;;;11.40;99.90;;;;;;2603429;54;20026;31
2021/12/31 03:25:52;;;;;;;7.10;4.13;;;11.40;99.90;;;;;;2603310;54;20022;31
2021/12/31 03:28:26;;;;;;;5.38;4.13;;;11.30;99.90;;;;;;2603329;54;19939;31
2021/12/31 03:31:00;;;;;;;8.20;4.30;;;11.40;99.90;;;;;;2603134;54;20912;31
2021/12/31 03:33:34;;;;;;;8.93;4.20;;;11.30;99.90;;;;;;2603232;54;20032;31
2021/12/31 03:36:08;;;;;;;9.20;4.70;;;11.30;99.90;;;;;;2603174;54;20026;31
2021/12/31 03:38:45;;;;;;;11.32;6.10;;;11.30;99.90;;;;;;2603243;54;20026;31
2021/12/31 03:41:20;;;;;;;8.10;5.15;;;11.30;99.90;;;;;;2603134;54;20845;31
2021/12/31 03:43:54;;;;;;;8.45;5.07;;;11.30;99.90;;;;;;2603120;54;20049;31
2021/12/31 03:46:28;;;;;;;4.20;3.40;;;11.40;99.90;;;;;;2621948;47;20892;31
2021/12/31 03:49:02;;;;;;;5.60;3.25;;;11.40;99.90;;;;;;2603104;54;20100;31
2021/12/31 03:51:36;;;;;;;10.40;3.67;;;11.30;99.90;;;;;;2603224;54;19942;31
2021/12/31 03:54:13;;;;;;;6.60;3.63;;;11.30;99.90;;;;;;2603178;54;20026;31
2021/12/31 03:56:47;;;;;;;6.40;3.80;;;11.30;99.90;;;;;;2603265;54;19934;31
2021/12/31 03:59:21;;;;;;;3.35;2.65;;;11.30;99.90;;;;;;2603317;54;20826;31
2021/12/31 04:01:55;;;;;;;5.25;2.72;;;11.30;99.90;;;;;;2602948;54;20736;31
2021/12/31 04:04:30;;;;;;;4.85;2.70;;;11.40;99.90;;;;;;2603105;54;20880;31
2021/12/31 04:07:06;;;;;;;2.92;2.30;;;11.30;99.90;;;;;;2603205;54;20026;31
2021/12/31 04:09:43;;;;;;;4.65;2.30;;;11.40;99.90;;;;;;2603199;54;20027;31
2021/12/31 04:12:17;;;;;;;2.90;2.17;;;11.40;99.90;;;;;;2621606;47;20026;31
2021/12/31 04:14:51;;;;;;;3.38;2.22;;;11.40;99.90;;;;;;2621727;47;20026;31
2021/12/31 04:17:25;;;;;;;4.53;2.13;;;11.40;99.90;;;;;;2603569;54;20969;31
2021/12/31 04:19:59;;;;;;;3.15;1.80;;;11.40;99.90;;;;;;2604065;54;20074;31
2021/12/31 04:22:33;;;;;;;4.07;2.03;;;11.40;99.90;;;;;;2622176;46;20026;31
2021/12/31 04:25:10;;;;;;;4.00;2.20;;;11.40;99.90;;;;;;2603829;54;20027;31
2021/12/31 04:27:44;;;;;;;3.42;1.55;;;11.40;99.90;;;;;;2604090;54;20031;31
2021/12/31 04:30:18;;;;;;;5.63;2.00;;;11.40;99.90;;;;;;2603763;54;20027;31
2021/12/31 04:32:52;;;;;;;7.20;1.65;;;11.40;99.90;;;;;;2603512;54;20691;31
2021/12/31 04:35:26;;;;;;;5.72;1.58;;;11.40;99.90;;;;;;2603667;54;20038;31
2021/12/31 04:38:00;;;;;;;4.45;1.65;;;11.40;99.90;;;;;;2622661;46;20732;31
2021/12/31 04:40:37;;;;;;;4.00;1.52;;;11.40;99.90;;;;;;2603527;54;20919;31
2021/12/31 04:43:11;;;;;;;2.80;1.70;;;11.40;99.90;;;;;;2603653;54;20033;31
2021/12/31 04:45:45;;;;;;;2.80;1.30;;;11.40;99.90;;;;;;2603996;54;19939;31
2021/12/31 04:48:19;;;;;;;2.95;1.58;;;11.50;99.90;;;;;;2603865;54;20030;31
2021/12/31 04:50:53;;;;;;;2.28;1.38;;;11.40;99.90;;;;;;2603932;54;20029;31
2021/12/31 04:53:27;;;;;;;6.75;1.50;;;11.40;99.90;;;;;;2603851;54;20027;31
2021/12/31 04:56:04;;;;;;;3.90;1.60;;;11.40;99.90;;;;;;2603721;54;20053;31
2021/12/31 04:58:38;;;;;;;3.03;1.50;;;11.40;99.90;;;;;;2603973;54;20029;31
2021/12/31 05:01:12;;;;;;;3.92;1.40;;;11.40;99.90;;;;;;2603848;54;20123;31
2021/12/31 05:03:46;;;;;;;3.40;1.40;;;11.40;99.90;;;;;;2603692;54;20033;31
2021/12/31 05:06:20;;;;;;;3.20;1.10;;;11.40;99.90;;;;;;2622314;46;20036;31
2021/12/31 05:08:54;;;;;;;1.80;1.33;;;11.40;99.90;;;;;;2603399;54;20246;31
2021/12/31 05:11:31;;;;;;;2.55;1.60;;;11.40;99.90;;;;;;2603728;54;20845;31
2021/12/31 05:14:05;;;;;;;3.15;1.10;;;11.40;99.90;;;;;;2603801;54;20085;31
2021/12/31 05:16:39;;;;;;;4.75;1.30;;;11.50;99.90;;;;;;2621984;46;20921;31
2021/12/31 05:19:13;;;;;;;2.83;1.35;;;11.50;99.90;;;;;;2603831;54;20899;31
2021/12/31 05:21:47;;;;;;;4.55;1.83;;;11.50;99.90;;;;;;2603824;54;20022;31
2021/12/31 05:24:21;;;;;;;10.63;1.80;;;11.50;99.90;;;;;;2603586;54;20841;31
2021/12/31 05:26:59;;;;;;;4.57;1.30;;;11.50;99.90;;;;;;2603655;54;20026;31
2021/12/31 05:29:33;;;;;;;2.40;1.20;;;11.50;99.90;;;;;;2603678;54;20026;31
2021/12/31 05:32:08;;;;;;;2.50;1.20;;;11.50;99.90;;;;;;2603611;54;20030;31
2021/12/31 05:34:42;;;;;;;2.78;1.52;;;11.50;99.90;;;;;;2603646;54;20027;31
2021/12/31 05:37:16;;;;;;;3.53;1.42;;;11.50;99.90;;;;;;2603764;54;20085;31
2021/12/31 05:39:50;;;;;;;2.72;1.30;;;11.60;99.90;;;;;;2603543;54;20033;31
2021/12/31 05:42:27;;;;;;;3.35;1.45;;;11.60;99.90;;;;;;2621926;46;20906;31
2021/12/31 05:45:01;;;;;;;2.58;1.30;;;11.60;99.90;;;;;;2603647;54;20042;31
2021/12/31 05:47:35;;;;;;;5.22;1.10;;;11.60;99.90;;;;;;2603627;54;20966;31
2021/12/31 05:50:19;;;;;;;1.95;1.13;;;11.60;99.90;;;;;;2603513;54;20764;31
2021/12/31 05:52:52;;;;;;;2.38;1.10;;;11.60;99.90;;;;;;2603649;54;20894;31
2021/12/31 05:55:26;;;;;;;2.38;1.50;;;11.60;99.90;;;;;;2603662;54;20833;31
2021/12/31 05:58:03;;;;;;;2.63;1.63;;;11.60;99.90;;;;;;2622008;46;20023;31
2021/12/31 06:00:37;;;;;;;3.55;1.00;;;11.60;99.90;;;;;;2603659;54;21782;31
2021/12/31 06:03:11;;;;;;;2.80;1.30;;;11.70;99.90;;;;;;2603622;54;20895;31
2021/12/31 06:05:45;;;;;;;2.75;0.95;;;11.60;99.90;;;;;;2622244;46;20889;31
2021/12/31 06:08:20;;;;;;;2.70;1.23;;;11.60;99.90;;;;;;2603603;54;20023;31
2021/12/31 06:10:54;;;;;;;2.50;0.90;;;11.60;99.90;;;;;;2621738;46;20873;31
2021/12/31 06:13:31;;;;;;;4.25;1.15;;;11.70;99.90;;;;;;2603524;54;20880;31
2021/12/31 06:16:04;;;;;;;3.15;1.70;;;11.60;99.90;;;;;;2603379;54;20832;31
2021/12/31 06:18:39;;;;;;;2.13;0.88;;;11.70;99.90;;;;;;2603762;54;20053;31
2021/12/31 06:21:13;;;;;;;4.53;0.80;;;11.70;99.90;;;;;;2603552;54;20869;31
2021/12/31 06:23:47;;;;;;;1.25;0.80;;;11.70;99.90;;;;;;2603561;54;20033;31
2021/12/31 06:26:35;;;;;;;5.57;1.05;;;11.70;99.90;;;;;;2603483;54;20820;31
2021/12/31 06:29:12;;;;;;;2.72;0.95;;;11.70;99.90;;;;;;2622015;46;20810;31
2021/12/31 06:31:46;;;;;;;2.45;0.95;;;11.70;99.90;;;;;;2621687;46;20873;31
2021/12/31 06:34:20;;;;;;;2.72;1.10;;;11.70;99.90;;;;;;2603307;54;20030;31
2021/12/31 06:36:55;;;;;;;2.90;0.98;;;11.70;99.90;;;;;;2701925;39;20320;31
2021/12/31 06:39:29;;;;;;;3.17;1.30;;;11.70;99.90;;;;;;2621935;46;20125;31
2021/12/31 06:42:03;;;;;;;1.35;0.98;;;11.60;99.90;;;;;;2603240;54;20045;31
2021/12/31 06:44:40;;;;;;;2.30;1.70;;;11.60;99.90;;;;;;2603314;54;20093;31
2021/12/31 06:47:14;;;;;;;2.90;1.45;;;11.60;99.90;;;;;;2603435;54;20049;31
2021/12/31 06:49:48;;;;;;;4.32;1.77;;;11.60;99.90;;;;;;2603336;54;20108;31
2021/12/31 06:52:22;;;;;;;7.03;1.45;;;11.60;99.90;;;;;;2603286;54;20136;31
2021/12/31 06:54:56;;;;;;;2.72;1.20;;;11.60;99.90;;;;;;2622120;46;20910;31
2021/12/31 06:57:30;;;;;;;3.38;1.73;;;11.60;99.90;;;;;;2603300;54;20038;31
2021/12/31 07:00:08;;;;;;;2.17;1.10;;;11.70;99.90;;;;;;2621809;46;20038;31
2021/12/31 07:02:42;;;;;;;3.63;1.23;;;11.70;99.90;;;;;;2603344;54;19930;31
2021/12/31 07:05:16;;;;;;;2.85;1.20;;;11.70;99.90;;;;;;2603453;54;20234;31
2021/12/31 07:10:21;;;;;;;2.95;1.00;;;11.70;99.90;;;;;;2621519;46;20412;31
2021/12/31 07:12:58;;;;;;;4.68;1.10;;;11.70;99.90;;;;;;2621632;46;20917;31
2021/12/31 07:15:35;;;;;;;2.35;1.00;;;11.70;99.90;;;;;;2603431;54;20124;31
2021/12/31 07:18:09;;;;;;;2.55;1.20;;;11.70;99.90;;;;;;2603351;54;20050;31
2021/12/31 07:20:43;;;;;;;3.35;1.15;;;11.70;99.90;;;;;;2603370;54;20030;31
2021/12/31 07:23:18;;;;;;;3.38;0.90;;;11.80;99.90;;;;;;2603469;54;20022;31
2021/12/31 07:25:52;;;;;;;3.40;1.00;;;11.80;99.90;;;;;;2621789;46;20026;31
2021/12/31 07:28:27;;;;;;;1.73;0.82;;;11.80;99.90;;;;;;2621626;46;20046;31
2021/12/31 07:31:02;;;;;;;2.25;1.15;;;11.80;99.90;;;;;;2603234;54;20053;31
2021/12/31 07:33:39;;;;;;;1.80;0.90;;;11.80;99.90;;;;;;2603465;54;20084;31
2021/12/31 07:36:13;;;;;;;1.88;1.00;;;11.80;99.90;;;;;;2603294;54;20111;31
2021/12/31 07:38:59;;;;;;;3.27;1.33;;;11.80;99.90;;;;;;2603214;54;20861;31
2021/12/31 07:41:33;;;;;;;3.53;1.35;;;11.80;99.90;;;;;;2603025;54;20242;31
2021/12/31 07:44:08;;;;;;;3.33;1.50;;;11.80;99.90;;;;;;2603041;54;20026;31
2021/12/31 07:46:44;;;;;;;2.28;0.90;;;11.80;99.90;;;;;;2622071;47;20880;31
2021/12/31 07:49:21;;;;;;;3.00;1.10;;;11.90;99.90;;;;;;2603058;54;20027;31
2021/12/31 07:51:55;;;;;;;3.50;1.40;;;11.90;99.90;;;;;;2603284;54;20954;31
2021/12/31 07:54:29;;;;;;;3.08;0.70;;;11.90;99.90;;;;;;2622141;46;20065;31
2021/12/31 07:57:03;;;;;;;2.63;0.90;;;11.90;99.90;;;;;;2604083;54;20030;31
2021/12/31 07:59:37;;;;;;;4.22;1.10;;;11.90;99.90;;;;;;2604104;54;20045;31
2021/12/31 08:02:11;;;;;;;2.75;0.80;;;12.00;99.90;;;;;;2603866;54;20081;31
2021/12/31 08:04:49;;;;;;;1.97;0.80;;;11.90;99.90;;;;;;2603751;54;20912;31
2021/12/31 08:07:23;;;;;;;2.80;0.70;;;12.00;99.90;;;;;;2603841;54;20053;31
2021/12/31 08:10:00;;;;;;;4.68;0.77;;;12.00;99.90;;;;;;2603827;54;20102;31
2021/12/31 08:12:54;;;;;;;2.27;0.97;;;12.00;99.90;;;;;;2604063;54;20033;31
2021/12/31 08:15:29;;;;;;;2.60;1.13;;;12.00;99.90;;;;;;2604044;54;20026;31
2021/12/31 08:18:03;;;;;;;2.80;1.10;;;12.10;99.90;;;;;;2702706;39;21062;31
2021/12/31 08:20:40;;;;;;;3.20;1.30;;;12.10;99.90;;;;;;2603842;54;20085;31
2021/12/31 08:23:14;;;;;;;3.20;1.23;;;12.10;99.90;;;;;;2603910;54;20890;31
2021/12/31 08:25:48;;;;;;;4.32;1.63;;;12.10;99.90;;;;;;2622535;46;20035;31
2021/12/31 08:28:22;;;;;;;1.83;0.75;;;12.10;99.90;;;;;;2603922;54;20022;31
2021/12/31 08:30:58;;;;;;;1.90;0.90;;;12.20;99.90;;;;;;2603967;54;19941;31
2021/12/31 08:33:32;;;;;;;3.40;0.70;;;12.20;99.90;;;;;;2621966;46;20833;31
2021/12/31 08:36:10;;;;;;;2.75;0.90;;;12.30;99.90;;;;;;2603962;54;20034;31
2021/12/31 08:38:44;;;;;;;2.28;0.85;;;12.30;99.90;;;;;;2603528;54;20101;31
2021/12/31 08:41:18;;;;;;;1.80;0.90;;;12.30;99.90;;;;;;2603771;54;20026;31
2021/12/31 08:44:12;;;;;;;2.40;0.50;;;12.40;99.90;;;;;;2603732;54;19934;31
2021/12/31 08:46:47;;;;;;;2.00;0.93;;;12.40;99.90;;;;;;2603827;54;21098;31
2021/12/31 08:49:23;;;;;;;3.45;1.33;;;12.50;99.90;;;;;;2603961;54;20027;31
2021/12/31 08:52:01;;;;;;;2.80;1.40;;;12.50;99.90;;;;;;2603744;54;20887;31
2021/12/31 08:54:36;;;;;;;3.40;1.00;;;12.50;99.90;;;;;;2603599;54;20022;31
2021/12/31 08:57:13;;;;;;;5.05;1.70;;;12.50;99.90;;;;;;2603730;54;20077;31
2021/12/31 08:59:47;;;;;;;2.35;1.40;;;12.50;99.90;;;;;;2603575;54;20886;31
2021/12/31 09:02:21;;;;;;;2.55;0.95;;;12.60;99.90;;;;;;2604076;54;20023;31
2021/12/31 09:04:56;;;;;;;1.58;0.98;;;12.50;99.90;;;;;;2603572;54;20856;31
2021/12/31 09:07:33;;;;;;;2.70;1.38;;;12.50;99.90;;;;;;2602923;54;20034;31
2021/12/31 09:10:08;;;;;;;3.57;1.00;;;12.60;99.90;;;;;;2622190;46;20033;31
2021/12/31 09:12:44;;;;;;;1.50;0.98;;;12.60;99.90;;;;;;2603837;54;20033;31
2021/12/31 09:15:18;;;;;;;2.88;1.30;;;12.60;99.90;;;;;;2603537;54;20109;31
2021/12/31 09:17:55;;;;;;;2.65;0.77;;;12.70;99.90;;;;;;2603511;54;20870;31
2021/12/31 09:20:29;;;;;;;2.53;0.90;;;12.60;99.90;;;;;;2603776;54;20022;31
2021/12/31 09:23:07;;;;;;;1.90;0.98;;;12.70;99.90;;;;;;2603721;54;20022;31
2021/12/31 09:25:41;;;;;;;1.45;0.90;;;12.70;99.90;;;;;;2622188;46;20032;31
2021/12/31 09:28:16;;;;;;;1.58;0.70;;;12.70;99.90;;;;;;2603744;54;20582;31
2021/12/31 09:30:50;;;;;;;4.80;1.20;;;12.80;99.90;;;;;;2603659;54;20913;31
2021/12/31 09:33:25;;;;;;;2.05;0.80;;;12.80;99.90;;;;;;2603508;54;20034;31
2021/12/31 09:36:00;;;;;;;1.60;0.90;;;12.70;99.90;;;;;;2622133;46;20026;31
2021/12/31 09:38:39;;;;;;;2.45;1.00;;;12.70;99.90;;;;;;2603461;54;20936;31
2021/12/31 09:41:13;;;;;;;5.05;1.42;;;12.70;99.90;;;;;;2603732;54;20867;31
2021/12/31 09:43:48;;;;;;;5.50;1.50;;;12.70;99.90;;;;;;2603815;54;20094;31
2021/12/31 09:46:22;;;;;;;3.30;1.40;;;12.80;99.90;;;;;;2720603;39;22402;31
2021/12/31 09:48:56;;;;;;;4.30;1.67;;;12.80;99.90;;;;;;2622405;46;20089;31
2021/12/31 09:51:30;;;;;;;4.00;2.20;;;12.80;99.90;;;;;;2603790;54;20030;31
2021/12/31 09:54:07;;;;;;;5.43;1.85;;;12.80;99.90;;;;;;2603442;54;20096;31
2021/12/31 09:56:42;;;;;;;2.67;1.75;;;12.80;99.90;;;;;;2603670;54;20826;31
2021/12/31 09:59:16;;;;;;;2.72;1.50;;;12.90;99.90;;;;;;2622215;46;20022;31
2021/12/31 10:01:50;;;;;;;3.75;2.00;;;12.90;99.90;;;;;;2603600;54;20030;31
2021/12/31 10:04:25;;;;;;;3.85;1.50;;;13.00;99.90;;;;;;2603784;54;20891;31
2021/12/31 10:07:08;;;;;;;2.60;1.30;;;13.00;99.90;;;;;;2603648;54;20081;31
2021/12/31 10:09:45;;;;;;;3.80;1.77;;;13.10;99.90;;;;;;2603561;54;19941;31
2021/12/31 10:12:19;;;;;;;4.03;1.50;;;13.10;99.90;;;;;;2603533;54;20029;31
2021/12/31 10:14:55;;;;;;;3.45;1.83;;;13.10;99.90;;;;;;2603561;54;20030;31
2021/12/31 10:17:36;;;;;;;4.00;2.00;;;13.10;99.90;;;;;;2603398;54;20026;31
2021/12/31 10:20:12;;;;;;;3.40;1.80;;;13.10;99.90;;;;;;2702080;39;20480;31
2021/12/31 10:22:47;;;;;;;2.47;1.50;;;13.20;99.90;;;;;;2603296;54;20103;31
2021/12/31 10:25:25;;;;;;;4.45;1.95;;;13.20;99.90;;;;;;2603505;54;20034;31
2021/12/31 10:28:12;;;;;;;3.13;1.70;;;13.20;99.90;;;;;;2603207;54;20027;31
2021/12/31 10:30:45;;;;;;;2.60;1.50;;;13.20;99.90;;;;;;2621628;46;20037;31
2021/12/31 10:33:19;;;;;;;4.60;1.83;;;13.20;99.90;;;;;;2621609;46;20023;31
2021/12/31 10:35:57;;;;;;;1.70;1.30;;;13.20;99.90;;;;;;2603252;54;20027;31
2021/12/31 10:38:36;;;;;;;2.47;1.15;;;13.20;99.90;;;;;;2603590;54;19941;31
2021/12/31 10:41:13;;;;;;;4.25;1.08;;;13.30;99.90;;;;;;2603373;54;20760;31
2021/12/31 10:43:47;;;;;;;2.80;1.25;;;13.30;99.90;;;;;;2603294;54;20928;31
2021/12/31 10:46:21;;;;;;;3.10;1.20;;;13.40;99.90;;;;;;2603522;54;20081;31
2021/12/31 10:49:03;;;;;;;2.83;1.10;;;13.30;99.90;;;;;;2603476;54;20081;31
2021/12/31 10:51:39;;;;;;;2.42;1.08;;;13.40;99.90;;;;;;2603411;54;20037;31
2021/12/31 10:54:29;;;;;;;3.65;1.33;;;13.50;99.90;;;;;;2603423;54;20049;31
2021/12/31 10:57:06;;;;;;;3.95;1.50;;;13.50;99.90;;;;;;2621839;46;20022;31
2021/12/31 10:59:40;;;;;;;2.83;1.17;;;13.50;99.90;;;;;;2603281;54;20073;31
2021/12/31 11:02:14;;;;;;;2.88;1.40;;;13.50;99.90;;;;;;2603529;54;20033;31
2021/12/31 11:04:48;;;;;;;3.08;0.90;;;13.60;99.90;;;;;;2620912;46;20022;31
2021/12/31 11:07:22;;;;;;;1.83;0.90;;;13.60;99.90;;;;;;2720291;39;20474;31
2021/12/31 11:09:57;;;;;;;2.10;1.00;;;13.60;99.90;;;;;;2603387;54;20030;31
2021/12/31 11:12:34;;;;;;;2.30;0.80;;;13.70;99.90;;;;;;2603309;54;20045;31
2021/12/31 11:15:09;;;;;;;4.55;1.20;;;13.70;99.90;;;;;;2603141;54;20033;31
2021/12/31 11:17:43;;;;;;;3.53;1.05;;;13.80;99.90;;;;;;2603589;54;20106;31
2021/12/31 11:20:20;;;;;;;3.40;1.08;;;13.80;99.90;;;;;;2621791;46;20034;31
2021/12/31 11:22:55;;;;;;;2.33;1.03;;;13.80;99.90;;;;;;2603256;54;20981;31
2021/12/31 11:25:55;;;;;;;2.83;1.00;;;13.80;99.90;;;;;;2602955;54;20089;31
2021/12/31 11:28:34;;;;;;;6.50;1.30;;;13.80;99.90;;;;;;2603091;54;20081;31
2021/12/31 11:31:29;;;;;;;3.60;1.13;;;13.80;99.90;;;;;;2621988;46;20053;31
2021/12/31 11:34:17;;;;;;;4.53;1.08;;;13.80;99.90;;;;;;2620072;46;20052;31
2021/12/31 11:36:54;;;;;;;2.63;1.00;;;13.80;99.90;;;;;;2622022;46;20842;31
2021/12/31 11:39:29;;;;;;;4.82;1.27;;;13.70;99.90;;;;;;2603298;54;20084;31
2021/12/31 11:42:04;;;;;;;3.70;1.10;;;13.80;99.90;;;;;;2603312;54;20030;31
2021/12/31 11:45:05;;;;;;;4.72;1.60;;;13.70;99.90;;;;;;2603215;54;20027;31
2021/12/31 11:47:39;;;;;;;2.95;1.60;;;13.70;99.90;;;;;;2603030;54;20796;31
2021/12/31 11:50:29;;;;;;;5.15;1.48;;;13.60;99.90;;;;;;2603352;54;20037;31
2021/12/31 11:53:06;;;;;;;8.95;3.85;;;13.70;99.90;;;;;;2603009;54;20583;31
2021/12/31 11:55:50;;;;;;;5.25;2.10;;;13.60;99.90;;;;;;2603119;54;20938;31
2021/12/31 11:58:43;;;;;;;10.03;6.20;;;13.60;99.90;;;;;;2603286;54;20038;31
2021/12/31 12:01:46;;;;;;;7.00;5.53;;;13.60;99.90;;;;;;2603040;54;20030;31
2021/12/31 12:04:20;;;;;;;6.47;2.20;;;13.60;99.90;;;;;;2603010;54;20038;31
2021/12/31 12:06:56;;;;;;;6.45;2.50;;;13.70;99.90;;;;;;2621407;47;20937;31
2021/12/31 12:10:10;;;;;;;4.40;1.85;;;13.70;99.90;;;;;;2701722;39;22374;31
2021/12/31 12:12:49;;;;;;;2.45;1.40;;;13.70;99.90;;;;;;2603028;54;20865;31
2021/12/31 12:15:42;;;;;;;3.07;1.60;;;13.70;99.90;;;;;;2603144;54;20027;31
2021/12/31 12:18:19;;;;;;;3.15;1.70;;;13.70;99.90;;;;;;2621309;47;20918;31
2021/12/31 12:20:53;;;;;;;5.30;2.63;;;13.60;99.90;;;;;;2602830;54;20037;31
2021/12/31 12:23:27;;;;;;;7.35;3.50;;;13.60;99.90;;;;;;2603000;54;20903;31
2021/12/31 12:26:01;;;;;;;7.07;3.55;;;13.60;99.90;;;;;;2603018;54;20030;31
2021/12/31 12:28:35;;;;;;;8.10;3.87;;;13.60;99.90;;;;;;2602942;54;20029;31
2021/12/31 12:31:17;;;;;;;5.80;3.10;;;13.60;99.90;;;;;;2701167;39;20477;31
2021/12/31 12:34:01;;;;;;;6.45;3.85;;;13.60;99.90;;;;;;2602893;54;20856;31
2021/12/31 12:36:35;;;;;;;9.20;4.45;;;13.60;99.90;;;;;;2603023;54;20023;31
2021/12/31 12:39:09;;;;;;;5.35;3.10;;;13.60;99.90;;;;;;2603615;54;20870;31
2021/12/31 12:41:44;;;;;;;10.35;5.30;;;13.60;99.90;;;;;;2603891;54;20030;31
2021/12/31 12:44:26;;;;;;;7.43;4.22;;;13.60;99.90;;;;;;2622287;46;20926;31
2021/12/31 12:47:02;;;;;;;7.70;4.30;;;13.60;99.90;;;;;;2773680;31;20627;31
2021/12/31 12:49:40;;;;;;;9.30;3.33;;;13.60;99.90;;;;;;2603991;54;20061;31
2021/12/31 12:52:14;;;;;;;7.00;2.70;;;13.60;99.90;;;;;;2603694;54;20027;31
2021/12/31 12:54:49;;;;;;;8.00;2.30;;;13.50;99.90;;;;;;2622312;46;20764;31
2021/12/31 12:57:25;;;;;;;6.55;2.95;;;13.50;99.90;;;;;;2603821;54;20046;31
2021/12/31 12:59:59;;;;;;;6.35;3.80;;;13.50;99.90;;;;;;2603627;54;20058;31
2021/12/31 13:02:52;;;;;;;9.50;5.33;;;13.50;99.90;;;;;;2622173;46;20037;31
2021/12/31 13:05:31;;;;;;;3.80;2.70;;;13.60;99.90;;;;;;2603591;54;20651;31
2021/12/31 13:08:07;;;;;;;4.53;2.50;;;13.50;99.90;;;;;;2622029;46;20034;31
2021/12/31 13:10:42;;;;;;;7.00;3.20;;;13.50;99.90;;;;;;2603693;54;20046;31
2021/12/31 13:13:19;;;;;;;4.28;2.40;;;13.60;99.90;;;;;;2603901;54;20060;31
2021/12/31 13:15:53;;;;;;;3.30;2.00;;;13.60;99.90;;;;;;2603956;54;20034;31
2021/12/31 13:18:31;;;;;;;5.10;2.63;;;13.70;99.90;;;;;;2603598;54;20104;31
2021/12/31 13:21:15;;;;;;;5.72;3.17;;;13.70;99.90;;;;;;2603960;54;20037;31
2021/12/31 13:23:53;;;;;;;7.30;3.20;;;13.70;99.90;;;;;;2603660;54;20102;31
2021/12/31 13:26:29;;;;;;;6.90;3.42;;;13.70;99.90;;;;;;2603615;54;20033;31
2021/12/31 13:29:05;;;;;;;6.32;3.38;;;13.70;99.90;;;;;;2603594;54;20081;31
2021/12/31 13:31:39;;;;;;;6.32;3.50;;;13.70;99.90;;;;;;2622207;46;20030;31
2021/12/31 13:34:15;;;;;;;5.65;3.83;;;13.70;99.90;;;;;;2622235;46;20777;31
2021/12/31 13:36:52;;;;;;;7.00;4.70;;;13.70;99.90;;;;;;2621840;46;20652;31
2021/12/31 13:39:39;;;;;;;7.32;5.30;;;13.70;99.90;;;;;;2603665;54;20085;31
2021/12/31 13:42:16;;;;;;;7.32;4.85;;;13.60;99.90;;;;;;2603701;54;20882;31
2021/12/31 13:44:51;;;;;;;8.75;4.47;;;13.60;99.90;;;;;;2603577;54;20030;31